createdAt,value
2018-07-06T00:01:16.926Z,101002.77
2018-07-06T00:03:38.265Z,101003.04
2018-07-06T00:05:59.426Z,101002.55
2018-07-06T00:08:20.778Z,100969.71
2018-07-06T00:10:42.144Z,101006.96
2018-07-06T00:13:03.467Z,101010.51
2018-07-06T00:15:24.877Z,101012.81
2018-07-06T00:17:46.125Z,100950.37
2018-07-06T00:20:07.739Z,101012.30
2018-07-06T00:22:28.874Z,101010.97
2018-07-06T00:24:50.424Z,101009.89
2018-07-06T00:27:05.953Z,101011.45
2018-07-06T00:29:27.633Z,101002.95
2018-07-06T00:31:49.184Z,101018.36
2018-07-06T00:34:10.563Z,101025.08
2018-07-06T00:36:31.826Z,101032.24
2018-07-06T00:38:53.123Z,101028.37
2018-07-06T00:41:14.466Z,101027.98
2018-07-06T00:43:35.609Z,101039.30
2018-07-06T00:45:56.904Z,101023.05
2018-07-06T00:48:18.184Z,100997.51
2018-07-06T00:50:39.466Z,101024.51
2018-07-06T00:53:00.604Z,101032.72
2018-07-06T00:55:21.917Z,101031.00
2018-07-06T00:57:48.313Z,101036.22
2018-07-06T01:00:09.675Z,101036.83
2018-07-06T01:02:30.921Z,101033.91
2018-07-06T01:04:52.294Z,101034.39
2018-07-06T01:07:13.572Z,101036.91
2018-07-06T01:09:34.897Z,101027.55
2018-07-06T01:11:56.304Z,101028.91
2018-07-06T01:14:17.667Z,101029.75
2018-07-06T01:16:38.891Z,101039.52
2018-07-06T01:19:00.228Z,101032.58
2018-07-06T01:21:21.572Z,101035.51
2018-07-06T01:23:43.185Z,101042.75
2018-07-06T01:26:04.705Z,101040.08
2018-07-06T01:28:26.179Z,101051.52
2018-07-06T01:30:47.744Z,101060.08
2018-07-06T01:33:09.178Z,101060.16
2018-07-06T01:35:30.589Z,101057.08
2018-07-06T01:37:51.811Z,101025.25
2018-07-06T01:40:13.047Z,101053.14
2018-07-06T01:42:34.347Z,101060.21
2018-07-06T01:44:55.810Z,101064.43
2018-07-06T01:47:17.219Z,101066.56
2018-07-06T01:49:32.758Z,101062.42
2018-07-06T01:51:54.050Z,101042.18
2018-07-06T01:54:15.261Z,101069.78
2018-07-06T01:56:36.457Z,101065.91
2018-07-06T01:58:57.737Z,101067.54
2018-07-06T02:01:19.076Z,101072.75
2018-07-06T02:03:40.326Z,101063.76
2018-07-06T02:06:01.623Z,101068.94
2018-07-06T02:08:22.845Z,101063.00
2018-07-06T02:10:44.061Z,101064.81
2018-07-06T02:13:06.071Z,100949.86
2018-07-06T02:15:27.232Z,101063.81
2018-07-06T02:17:48.597Z,101067.00
2018-07-06T02:20:09.982Z,101063.54
2018-07-06T02:22:31.409Z,101067.61
2018-07-06T02:24:52.681Z,101069.00
2018-07-06T02:27:14.003Z,101074.08
2018-07-06T02:29:35.250Z,101077.77
2018-07-06T02:31:56.646Z,101080.69
2018-07-06T02:34:17.910Z,101031.74
2018-07-06T02:36:39.067Z,101056.77
2018-07-06T02:39:00.288Z,101084.94
2018-07-06T02:41:21.517Z,101082.26
2018-07-06T02:43:42.779Z,101078.84
2018-07-06T02:46:04.690Z,101077.80
2018-07-06T02:48:25.873Z,101080.95
2018-07-06T02:50:47.070Z,101080.27
2018-07-06T02:53:08.311Z,101080.22
2018-07-06T02:55:29.862Z,101081.59
2018-07-06T02:57:51.182Z,101084.74
2018-07-06T03:00:12.533Z,101085.44
2018-07-06T03:02:33.821Z,101086.73
2018-07-06T03:04:55.056Z,101038.29
2018-07-06T03:07:16.369Z,101094.36
2018-07-06T03:09:37.739Z,101094.31
2018-07-06T03:11:59.085Z,101093.30
2018-07-06T03:14:20.449Z,101090.70
2018-07-06T03:16:41.744Z,101089.69
2018-07-06T03:19:03.009Z,101087.70
2018-07-06T03:21:24.347Z,101095.88
2018-07-06T03:23:45.623Z,101068.13
2018-07-06T03:26:06.890Z,101090.70
2018-07-06T03:28:28.278Z,101083.50
2018-07-06T03:30:49.494Z,101087.20
2018-07-06T03:33:10.910Z,101091.40
2018-07-06T03:35:32.075Z,101090.16
2018-07-06T03:37:53.505Z,101091.16
2018-07-06T03:40:14.746Z,101095.37
2018-07-06T03:42:36.095Z,101096.75
2018-07-06T03:44:57.402Z,101100.81
2018-07-06T03:47:18.635Z,101111.37
2018-07-06T03:49:39.813Z,101081.83
2018-07-06T03:52:01.074Z,101107.64
2018-07-06T03:54:22.321Z,101113.56
2018-07-06T03:56:43.527Z,101097.03
2018-07-06T03:59:04.765Z,101120.34
2018-07-06T04:01:25.877Z,101122.63
2018-07-06T04:06:21.964Z,101130.58
2018-07-06T04:08:44.503Z,101131.39
2018-07-06T04:11:05.822Z,101131.20
2018-07-06T04:13:27.290Z,101135.06
2018-07-06T04:15:49.530Z,101136.73
2018-07-06T04:18:10.781Z,101146.58
2018-07-06T04:20:31.956Z,101147.62
2018-07-06T04:22:53.191Z,101150.38
2018-07-06T04:25:14.568Z,101151.70
2018-07-06T04:27:35.877Z,101155.98
2018-07-06T04:29:57.301Z,101156.51
2018-07-06T04:32:18.534Z,101157.36
2018-07-06T04:34:39.755Z,101161.84
2018-07-06T04:37:01.037Z,101170.48
2018-07-06T04:39:22.349Z,101174.19
2018-07-06T04:41:43.641Z,101170.48
2018-07-06T04:44:04.892Z,101179.77
2018-07-06T04:46:26.067Z,101175.44
2018-07-06T04:48:47.484Z,101180.98
2018-07-06T04:51:08.759Z,101185.61
2018-07-06T04:53:29.942Z,101189.77
2018-07-06T04:55:51.346Z,101188.05
2018-07-06T04:58:12.552Z,101195.58
2018-07-06T05:00:34.220Z,101193.04
2018-07-06T05:02:55.482Z,101197.95
2018-07-06T05:05:16.760Z,101188.56
2018-07-06T05:07:38.123Z,101194.52
2018-07-06T05:09:59.480Z,101195.58
2018-07-06T05:12:20.835Z,101198.73
2018-07-06T05:14:42.106Z,101203.98
2018-07-06T05:17:03.567Z,101211.00
2018-07-06T05:19:24.814Z,101217.94
2018-07-06T05:21:46.116Z,101216.57
2018-07-06T05:24:07.366Z,101210.88
2018-07-06T05:26:28.662Z,101218.05
2018-07-06T05:28:50.254Z,101219.48
2018-07-06T05:31:11.617Z,101214.17
2018-07-06T05:33:32.913Z,101217.35
2018-07-06T05:35:54.393Z,101221.46
2018-07-06T05:38:15.824Z,101218.60
2018-07-06T05:40:37.134Z,101220.83
2018-07-06T05:42:58.719Z,101195.01
2018-07-06T05:45:19.874Z,101220.68
2018-07-06T05:47:41.165Z,101225.30
2018-07-06T05:50:02.457Z,101233.48
2018-07-06T05:52:23.708Z,101229.60
2018-07-06T05:54:45.003Z,101234.67
2018-07-06T05:57:06.457Z,101237.00
2018-07-06T05:59:27.660Z,101243.11
2018-07-06T06:01:49.352Z,101155.56
2018-07-06T06:04:10.665Z,101250.13
2018-07-06T06:06:31.969Z,101253.87
2018-07-06T06:08:35.028Z,101167.81
2018-07-06T06:10:40.191Z,101255.34
2018-07-06T06:12:45.502Z,101044.57
2018-07-06T06:14:51.223Z,101260.52
2018-07-06T06:16:56.482Z,101259.95
2018-07-06T06:19:01.558Z,101267.97
2018-07-06T06:21:06.624Z,101270.40
2018-07-06T06:23:11.842Z,101263.04
2018-07-06T06:25:17.787Z,101270.53
2018-07-06T06:27:22.860Z,101274.21
2018-07-06T06:29:28.016Z,101269.77
2018-07-06T06:31:32.937Z,101272.91
2018-07-06T06:33:37.909Z,101275.58
2018-07-06T06:35:43.380Z,101278.02
2018-07-06T06:37:48.375Z,101280.98
2018-07-06T06:39:53.817Z,101282.98
2018-07-06T06:41:58.849Z,101283.33
2018-07-06T06:44:03.806Z,101280.55
2018-07-06T06:46:08.864Z,101289.97
2018-07-06T06:48:13.939Z,101275.17
2018-07-06T06:50:19.057Z,101290.72
2018-07-06T06:52:24.205Z,101301.16
2018-07-06T06:54:29.505Z,101305.80
2018-07-06T06:56:34.667Z,101304.34
2018-07-06T06:58:40.173Z,101298.69
2018-07-06T07:00:45.214Z,101298.61
2018-07-06T07:02:50.195Z,101299.70
2018-07-06T07:04:55.213Z,101303.95
2018-07-06T07:07:00.431Z,101303.41
2018-07-06T07:09:09.515Z,101303.30
2018-07-06T07:11:14.476Z,101316.12
2018-07-06T07:13:19.481Z,101297.49
2018-07-06T07:15:24.367Z,101310.17
2018-07-06T07:17:29.346Z,101315.39
2018-07-06T07:19:34.587Z,101317.31
2018-07-06T07:21:39.548Z,101317.41
2018-07-06T07:23:44.833Z,101320.42
2018-07-06T07:25:50.167Z,101294.44
2018-07-06T07:27:55.186Z,101331.38
2018-07-06T07:30:00.433Z,101326.39
2018-07-06T07:32:05.458Z,101328.91
2018-07-06T07:34:10.738Z,101331.84
2018-07-06T07:36:15.784Z,101331.55
2018-07-06T07:38:21.248Z,101323.41
2018-07-06T07:40:26.392Z,101341.59
2018-07-06T07:42:31.372Z,101333.69
2018-07-06T07:44:36.558Z,101332.72
2018-07-06T07:46:41.605Z,101330.93
2018-07-06T07:48:46.673Z,101335.36
2018-07-06T07:53:13.922Z,101319.31
2018-07-06T07:55:18.898Z,101332.71
2018-07-06T07:57:24.135Z,101258.36
2018-07-06T07:59:30.789Z,101328.88
2018-07-06T08:01:35.847Z,101299.31
2018-07-06T08:03:40.694Z,101328.39
2018-07-06T08:05:45.643Z,101200.94
2018-07-06T08:07:50.906Z,101334.81
2018-07-06T08:09:55.967Z,101329.06
2018-07-06T08:12:02.424Z,101335.76
2018-07-06T08:14:07.911Z,101335.31
2018-07-06T08:16:13.951Z,101346.55
2018-07-06T08:18:19.230Z,101342.91
2018-07-06T08:20:24.641Z,101340.26
2018-07-06T08:22:29.708Z,101153.13
2018-07-06T08:24:34.626Z,101347.69
2018-07-06T08:26:39.667Z,101352.95
2018-07-06T08:28:44.635Z,101359.66
2018-07-06T08:30:49.821Z,101340.48
2018-07-06T08:32:55.172Z,101359.82
2018-07-06T08:35:16.705Z,101353.70
2018-07-06T08:37:43.225Z,101282.31
2018-07-06T08:39:48.581Z,101373.95
2018-07-06T08:41:53.989Z,101369.28
2018-07-06T08:43:59.002Z,101314.63
2018-07-06T08:46:04.155Z,101368.89
2018-07-06T08:48:09.198Z,101334.46
2018-07-06T08:50:14.375Z,101362.42
2018-07-06T08:52:19.651Z,101369.37
2018-07-06T08:54:25.846Z,101249.39
2018-07-06T08:56:32.274Z,101217.00
2018-07-06T08:58:37.280Z,101372.83
2018-07-06T09:00:42.119Z,101371.90
2018-07-06T09:02:47.109Z,101377.15
2018-07-06T09:04:52.954Z,101368.39
2018-07-06T09:06:58.108Z,101376.83
2018-07-06T09:09:03.244Z,101371.23
2018-07-06T09:11:08.226Z,101351.48
2018-07-06T09:13:13.625Z,101362.14
2018-07-06T09:15:18.624Z,101376.66
2018-07-06T09:17:24.009Z,101376.23
2018-07-06T09:19:29.201Z,101372.87
2018-07-06T09:21:36.352Z,101373.84
2018-07-06T09:23:41.268Z,101350.52
2018-07-06T09:25:46.337Z,101381.09
2018-07-06T09:27:51.691Z,101382.91
2018-07-06T09:29:58.512Z,101388.35
2018-07-06T09:32:03.493Z,101387.38
2018-07-06T09:34:09.392Z,101390.77
2018-07-06T09:36:14.446Z,101382.95
2018-07-06T09:38:19.356Z,101379.22
2018-07-06T09:40:24.236Z,101371.00
2018-07-06T09:42:29.289Z,101379.16
2018-07-06T09:44:34.399Z,101378.52
2018-07-06T09:46:39.353Z,101375.03
2018-07-06T09:48:44.379Z,101381.77
2018-07-06T09:50:49.362Z,101379.40
2018-07-06T09:52:54.629Z,101348.75
2018-07-06T09:54:59.617Z,101381.55
2018-07-06T09:57:04.559Z,101343.36
2018-07-06T09:59:09.567Z,101346.97
2018-07-06T10:01:15.100Z,101384.73
2018-07-06T10:03:19.998Z,101378.98
2018-07-06T10:05:25.145Z,101374.16
2018-07-06T10:07:30.052Z,101378.44
2018-07-06T10:09:35.163Z,101377.03
2018-07-06T10:11:40.142Z,101380.33
2018-07-06T10:13:45.115Z,101374.70
2018-07-06T10:15:50.145Z,101374.61
2018-07-06T10:17:55.188Z,101370.56
2018-07-06T10:20:00.582Z,101373.26
2018-07-06T10:22:06.160Z,101384.59
2018-07-06T10:24:11.158Z,101381.37
2018-07-06T10:26:16.044Z,101375.38
2018-07-06T10:30:49.319Z,101377.00
2018-07-06T10:32:54.348Z,101327.05
2018-07-06T10:34:59.806Z,101384.49
2018-07-06T10:37:04.719Z,101291.45
2018-07-06T10:39:09.675Z,101369.31
2018-07-06T10:41:14.804Z,101361.14
2018-07-06T10:43:19.939Z,101365.11
2018-07-06T10:45:25.191Z,101380.45
2018-07-06T10:47:30.340Z,101387.58
2018-07-06T10:49:35.453Z,101383.29
2018-07-06T10:51:40.360Z,101388.80
2018-07-06T10:53:45.307Z,101382.03
2018-07-06T10:55:50.247Z,101385.35
2018-07-06T10:57:55.737Z,101377.52
2018-07-06T11:00:00.702Z,101389.84
2018-07-06T11:02:05.755Z,101382.57
2018-07-06T11:04:10.842Z,101378.47
2018-07-06T11:06:15.768Z,101386.30
2018-07-06T11:08:20.858Z,101378.62
2018-07-06T11:10:25.861Z,101349.70
2018-07-06T11:12:30.805Z,101365.98
2018-07-06T11:14:36.133Z,101381.88
2018-07-06T11:16:41.022Z,101395.11
2018-07-06T11:18:45.945Z,101390.58
2018-07-06T11:20:51.684Z,101395.30
2018-07-06T11:22:56.736Z,101393.19
2018-07-06T11:25:01.945Z,101383.69
2018-07-06T11:27:06.776Z,101384.50
2018-07-06T11:29:11.631Z,101382.27
2018-07-06T11:31:16.560Z,101379.70
2018-07-06T11:33:21.604Z,101375.70
2018-07-06T11:35:26.588Z,101381.39
2018-07-06T11:37:31.710Z,101383.86
2018-07-06T11:39:36.928Z,101380.92
2018-07-06T11:41:42.031Z,101379.14
2018-07-06T11:43:47.414Z,101378.06
2018-07-06T11:45:52.565Z,101320.76
2018-07-06T11:47:57.422Z,101385.80
2018-07-06T11:50:02.907Z,101358.77
2018-07-06T11:52:09.587Z,101359.56
2018-07-06T11:54:14.669Z,101335.66
2018-07-06T11:56:20.216Z,101365.98
2018-07-06T11:58:25.729Z,101374.41
2018-07-06T12:00:30.841Z,101368.95
2018-07-06T12:02:36.103Z,101243.98
2018-07-06T12:04:41.253Z,101372.83
2018-07-06T12:06:46.147Z,101386.03
2018-07-06T12:08:51.831Z,101391.00
2018-07-06T12:10:57.011Z,101323.59
2018-07-06T12:13:02.349Z,101379.25
2018-07-06T12:15:07.607Z,101374.42
2018-07-06T12:17:44.758Z,101392.36
2018-07-06T12:19:49.571Z,101350.05
2018-07-06T12:21:54.506Z,101380.27
2018-07-06T12:23:59.397Z,101380.62
2018-07-06T12:26:04.324Z,101381.08
2018-07-06T12:28:09.232Z,101378.59
2018-07-06T12:30:14.351Z,101382.95
2018-07-06T12:32:19.263Z,101383.83
2018-07-06T12:34:24.835Z,101378.00
2018-07-06T12:36:29.899Z,101382.75
2018-07-06T12:38:36.176Z,101364.22
2018-07-06T12:40:41.175Z,101370.97
2018-07-06T12:42:46.143Z,101381.19
2018-07-06T12:44:51.015Z,101375.52
2018-07-06T12:47:01.482Z,101353.97
2018-07-06T12:49:06.552Z,101368.98
2018-07-06T12:51:11.826Z,101344.53
2018-07-06T12:53:16.754Z,101372.02
2018-07-06T12:55:22.191Z,101338.44
2018-07-06T12:57:27.185Z,101368.61
2018-07-06T12:59:32.298Z,101370.74
2018-07-06T13:01:37.807Z,101366.80
2018-07-06T13:03:42.938Z,101366.41
2018-07-06T13:05:47.893Z,101371.66
2018-07-06T13:07:53.601Z,101376.88
2018-07-06T13:09:58.675Z,101372.52
2018-07-06T13:12:04.202Z,101370.34
2018-07-06T13:14:16.196Z,101214.34
2018-07-06T13:16:21.880Z,101360.24
2018-07-06T13:18:26.848Z,101368.99
2018-07-06T13:20:31.944Z,101374.70
2018-07-06T13:22:37.142Z,101363.34
2018-07-06T13:24:42.534Z,101369.90
2018-07-06T13:26:47.469Z,101362.47
2018-07-06T13:28:53.090Z,101360.26
2018-07-06T13:30:58.484Z,101369.02
2018-07-06T13:33:03.806Z,101367.68
2018-07-06T13:35:12.172Z,101365.05
2018-07-06T13:37:16.926Z,101363.78
2018-07-06T13:39:21.695Z,101372.09
2018-07-06T13:41:26.639Z,101359.37
2018-07-06T13:43:31.665Z,101370.30
2018-07-06T13:45:36.641Z,101371.11
2018-07-06T13:47:41.557Z,101348.82
2018-07-06T13:49:46.420Z,101374.10
2018-07-06T13:51:51.854Z,101368.30
2018-07-06T13:53:56.862Z,101383.09
2018-07-06T13:56:01.742Z,101384.84
2018-07-06T13:58:06.584Z,101387.08
2018-07-06T14:00:11.893Z,101392.31
2018-07-06T14:02:16.859Z,101383.20
2018-07-06T14:04:21.804Z,101390.14
2018-07-06T14:06:26.817Z,101388.84
2018-07-06T14:08:31.944Z,101387.09
2018-07-06T14:10:37.108Z,101390.61
2018-07-06T14:12:42.391Z,101392.81
2018-07-06T14:14:48.681Z,101337.70
2018-07-06T14:16:53.611Z,101391.91
2018-07-06T14:18:58.535Z,101386.28
2018-07-06T14:21:03.846Z,101390.64
2018-07-06T14:23:09.022Z,101398.66
2018-07-06T14:25:14.003Z,101385.56
2018-07-06T14:27:18.956Z,101384.63
2018-07-06T14:29:24.426Z,101384.20
2018-07-06T14:31:29.560Z,101376.39
2018-07-06T14:33:34.422Z,101380.69
2018-07-06T14:35:39.542Z,101378.88
2018-07-06T14:37:44.512Z,101378.95
2018-07-06T14:39:49.439Z,101377.98
2018-07-06T14:41:54.628Z,101384.28
2018-07-06T14:43:59.832Z,101374.66
2018-07-06T14:46:04.968Z,101375.11
2018-07-06T14:48:09.937Z,101370.74
2018-07-06T14:50:14.978Z,101375.12
2018-07-06T14:52:19.738Z,101374.70
2018-07-06T14:54:24.751Z,101368.99
2018-07-06T14:56:29.590Z,101371.13
2018-07-06T14:58:34.382Z,101366.80
2018-07-06T15:00:39.195Z,101375.09
2018-07-06T15:02:44.306Z,101371.62
2018-07-06T15:04:49.208Z,101369.46
2018-07-06T15:06:54.112Z,101373.41
2018-07-06T15:08:59.114Z,101373.39
2018-07-06T15:11:04.142Z,101383.45
2018-07-06T15:13:09.293Z,101376.02
2018-07-06T15:15:14.220Z,101369.00
2018-07-06T15:17:19.221Z,101373.78
2018-07-06T15:19:24.332Z,101363.23
2018-07-06T15:21:29.330Z,101346.61
2018-07-06T15:23:34.324Z,101380.20
2018-07-06T15:25:39.292Z,101386.37
2018-07-06T15:27:44.508Z,101387.42
2018-07-06T15:29:49.450Z,101382.87
2018-07-06T15:31:54.504Z,101387.56
2018-07-06T15:33:59.505Z,101392.38
2018-07-06T15:36:04.425Z,101389.27
2018-07-06T15:38:09.495Z,101376.80
2018-07-06T15:40:14.440Z,101374.57
2018-07-06T15:42:19.371Z,101389.55
2018-07-06T15:44:24.537Z,101390.01
2018-07-06T15:46:29.792Z,101386.60
2018-07-06T15:48:34.795Z,101388.83
2018-07-06T15:50:39.943Z,101372.34
2018-07-06T15:52:44.999Z,101384.57
2018-07-06T15:54:49.893Z,101394.94
2018-07-06T15:56:54.900Z,101395.74
2018-07-06T15:58:59.776Z,101392.83
2018-07-06T16:01:04.776Z,101392.37
2018-07-06T16:03:09.715Z,101392.85
2018-07-06T16:05:14.604Z,101401.43
2018-07-06T16:07:19.534Z,101391.82
2018-07-06T16:09:24.627Z,101390.56
2018-07-06T16:11:29.559Z,101390.19
2018-07-06T16:13:34.542Z,101393.27
2018-07-06T16:15:39.371Z,101396.44
2018-07-06T16:17:44.549Z,101392.53
2018-07-06T16:19:49.340Z,101388.95
2018-07-06T16:21:54.201Z,101390.37
2018-07-06T16:23:59.268Z,101395.61
2018-07-06T16:26:04.424Z,101395.12
2018-07-06T16:28:09.369Z,101348.00
2018-07-06T16:30:17.072Z,101192.55
2018-07-06T16:32:22.233Z,101376.01
2018-07-06T16:34:27.289Z,101390.43
2018-07-06T16:36:32.456Z,101392.93
2018-07-06T16:38:38.178Z,101391.09
2018-07-06T16:40:43.158Z,101400.17
2018-07-06T16:42:48.140Z,101380.67
2018-07-06T16:44:53.449Z,101388.16
2018-07-06T16:46:58.572Z,101384.67
2018-07-06T16:49:03.735Z,101384.30
2018-07-06T16:51:08.953Z,101390.38
2018-07-06T16:53:14.650Z,101368.98
2018-07-06T16:55:20.149Z,101375.11
2018-07-06T16:57:25.152Z,101386.86
2018-07-06T16:59:30.324Z,101383.83
2018-07-06T17:01:35.444Z,101378.12
2018-07-06T17:03:40.615Z,101386.92
2018-07-06T17:05:45.912Z,101381.26
2018-07-06T17:07:51.016Z,101393.05
2018-07-06T17:09:56.111Z,101392.61
2018-07-06T17:12:01.413Z,101395.64
2018-07-06T17:14:06.700Z,101398.25
2018-07-06T17:16:12.160Z,101403.53
2018-07-06T17:18:17.447Z,101396.13
2018-07-06T17:20:22.547Z,101393.93
2018-07-06T17:22:27.670Z,101375.55
2018-07-06T17:26:48.581Z,101384.75
2018-07-06T17:28:55.759Z,101393.95
2018-07-06T17:31:01.043Z,101393.52
2018-07-06T17:33:06.035Z,101396.13
2018-07-06T17:35:11.049Z,101389.56
2018-07-06T17:37:16.360Z,101389.56
2018-07-06T17:39:21.901Z,101386.94
2018-07-06T17:41:27.144Z,101393.06
2018-07-06T17:43:32.128Z,101377.36
2018-07-06T17:45:37.200Z,101391.31
2018-07-06T17:47:42.390Z,101364.63
2018-07-06T17:49:48.357Z,101394.39
2018-07-06T17:51:53.792Z,101394.39
2018-07-06T17:53:58.987Z,101390.00
2018-07-06T17:56:04.634Z,101390.82
2018-07-06T17:58:14.781Z,101392.06
2018-07-06T18:00:19.813Z,101347.05
2018-07-06T18:02:25.090Z,101398.50
2018-07-06T18:04:30.172Z,101396.82
2018-07-06T18:06:35.742Z,101393.81
2018-07-06T18:08:42.733Z,101392.14
2018-07-06T18:10:48.923Z,101397.38
2018-07-06T18:12:54.191Z,101387.78
2018-07-06T18:14:59.342Z,101396.97
2018-07-06T18:17:05.001Z,101364.22
2018-07-06T18:19:11.533Z,101391.75
2018-07-06T18:21:17.210Z,101179.84
2018-07-06T18:23:22.971Z,101375.16
2018-07-06T18:25:28.651Z,101389.95
2018-07-06T18:27:34.571Z,101385.56
2018-07-06T18:29:40.182Z,101298.92
2018-07-06T18:31:45.844Z,101389.48
2018-07-06T18:33:51.613Z,101386.82
2018-07-06T18:36:04.504Z,101343.92
2018-07-06T18:38:14.141Z,101394.24
2018-07-06T18:40:24.668Z,101393.42
2018-07-06T18:42:32.035Z,101385.05
2018-07-06T18:44:40.794Z,101193.36
2018-07-06T18:46:47.714Z,101390.61
2018-07-06T18:48:54.553Z,101385.43
2018-07-06T18:51:01.586Z,101385.05
2018-07-06T18:53:07.809Z,101379.74
2018-07-06T18:55:15.137Z,101384.18
2018-07-06T18:57:21.065Z,101381.50
2018-07-06T18:59:34.775Z,101335.11
2018-07-06T19:01:44.705Z,101367.06
2018-07-06T19:03:51.909Z,101391.50
2018-07-06T19:05:58.830Z,101393.66
2018-07-06T19:08:07.399Z,101385.81
2018-07-06T19:10:12.559Z,101367.02
2018-07-06T19:14:37.973Z,101385.84
2018-07-06T19:16:49.040Z,101394.96
2018-07-06T19:19:00.717Z,101350.69
2018-07-06T19:21:11.411Z,101371.73
2018-07-06T19:23:18.749Z,101399.28
2018-07-06T19:25:26.311Z,101409.67
2018-07-06T19:27:32.002Z,101409.69
2018-07-06T19:29:37.551Z,101410.12
2018-07-06T19:31:46.189Z,101409.98
2018-07-06T19:33:56.043Z,101415.59
2018-07-06T19:36:05.269Z,101420.83
2018-07-06T19:38:10.363Z,101423.83
2018-07-06T19:40:15.539Z,101420.73
2018-07-06T19:42:21.678Z,101426.84
2018-07-06T19:44:27.103Z,101424.13
2018-07-06T19:46:39.457Z,101427.59
2018-07-06T19:48:45.764Z,101387.19
2018-07-06T19:50:51.583Z,101433.97
2018-07-06T19:52:57.933Z,101211.82
2018-07-06T19:55:03.850Z,101442.64
2018-07-06T19:57:10.638Z,101444.40
2018-07-06T19:59:16.704Z,101364.55
2018-07-06T20:01:22.405Z,101433.78
2018-07-06T20:03:27.942Z,101442.03
2018-07-06T20:05:51.839Z,101407.89
2018-07-06T20:08:08.154Z,101462.05
2018-07-06T20:10:13.402Z,101387.84
2018-07-06T20:12:19.040Z,101465.94
2018-07-06T20:14:24.681Z,101457.99
2018-07-06T20:16:31.035Z,101473.62
2018-07-06T20:18:36.363Z,101472.71
2018-07-06T20:20:41.671Z,101459.92
2018-07-06T20:22:47.156Z,101459.39
2018-07-06T20:24:53.287Z,101334.84
2018-07-06T20:26:58.705Z,101474.62
2018-07-06T20:29:04.637Z,101478.03
2018-07-06T20:31:10.427Z,101198.73
2018-07-06T20:33:15.982Z,101477.55
2018-07-06T20:35:21.668Z,101480.47
2018-07-06T20:37:27.225Z,101458.11
2018-07-06T20:39:32.588Z,101480.95
2018-07-06T20:41:38.425Z,101478.23
2018-07-06T20:43:45.637Z,101479.48
2018-07-06T20:45:51.173Z,101472.94
2018-07-06T20:47:57.217Z,101478.55
2018-07-06T20:50:02.672Z,101475.04
2018-07-06T20:52:08.281Z,101461.44
2018-07-06T20:54:13.847Z,101459.28
2018-07-06T20:56:19.632Z,101477.59
2018-07-06T20:58:25.168Z,101480.20
2018-07-06T21:00:30.576Z,101477.95
2018-07-06T21:02:36.023Z,101402.52
2018-07-06T21:04:42.018Z,101488.27
2018-07-06T21:06:49.607Z,101482.99
2018-07-06T21:08:57.589Z,101487.73
2018-07-06T21:11:04.063Z,101485.47
2018-07-06T21:13:09.571Z,101429.09
2018-07-06T21:15:14.906Z,101486.77
2018-07-06T21:17:20.565Z,101372.08
2018-07-06T21:19:26.144Z,101490.41
2018-07-06T21:21:31.682Z,101427.95
2018-07-06T21:23:36.826Z,101495.11
2018-07-06T21:25:42.644Z,101490.22
2018-07-06T21:27:49.004Z,101475.56
2018-07-06T21:29:54.489Z,101490.86
2018-07-06T21:31:59.692Z,101496.00
2018-07-06T21:34:05.290Z,101499.06
2018-07-06T21:36:10.479Z,101502.14
2018-07-06T21:38:15.730Z,101499.06
2018-07-06T21:40:21.196Z,101494.64
2018-07-06T21:42:26.500Z,101502.47
2018-07-06T21:44:32.293Z,101503.23
2018-07-06T21:46:37.861Z,101376.78
2018-07-06T21:48:43.961Z,101512.84
2018-07-06T21:50:49.819Z,101511.83
2018-07-06T21:52:55.613Z,101509.97
2018-07-06T21:55:00.925Z,101519.66
2018-07-06T21:57:06.328Z,101516.94
2018-07-06T21:59:12.115Z,101518.64
2018-07-06T22:01:17.576Z,101525.47
2018-07-06T22:03:23.502Z,101545.44
2018-07-06T22:05:29.536Z,101366.09
2018-07-06T22:07:35.149Z,101516.97
2018-07-06T22:09:40.723Z,101479.58
2018-07-06T22:11:46.117Z,101516.80
2018-07-06T22:13:51.408Z,101509.17
2018-07-06T22:15:56.719Z,101514.10
2018-07-06T22:18:03.398Z,101516.16
2018-07-06T22:20:08.213Z,101511.66
2018-07-06T22:22:13.792Z,101434.97
2018-07-06T22:24:19.471Z,101445.03
2018-07-06T22:26:24.901Z,101512.23
2018-07-06T22:28:30.425Z,101466.95
2018-07-06T22:30:36.107Z,101520.00
2018-07-06T22:32:52.519Z,101437.69
2018-07-06T22:34:59.813Z,101519.88
2018-07-06T22:37:08.901Z,101517.60
2018-07-06T22:39:14.343Z,101518.88
2018-07-06T22:41:19.477Z,101523.47
2018-07-06T22:43:24.652Z,101526.48
2018-07-06T22:45:30.025Z,101512.92
2018-07-06T22:47:35.307Z,101405.33
2018-07-06T22:49:40.584Z,101522.91
2018-07-06T22:51:47.728Z,101518.13
2018-07-06T22:53:52.811Z,101519.81
2018-07-06T22:55:57.777Z,101520.73
2018-07-06T22:58:03.090Z,101521.86
2018-07-06T23:00:08.332Z,101298.75
2018-07-06T23:02:14.187Z,101520.85
2018-07-06T23:04:19.344Z,101519.97
2018-07-06T23:06:24.459Z,101486.03
2018-07-06T23:08:29.557Z,101517.13
2018-07-06T23:10:34.735Z,101492.78
2018-07-06T23:12:40.432Z,101517.41
2018-07-06T23:14:45.425Z,101514.98
2018-07-06T23:16:50.653Z,101519.53
2018-07-06T23:18:55.989Z,101515.59
2018-07-06T23:21:00.993Z,101513.27
2018-07-06T23:23:08.011Z,101482.34
2018-07-06T23:25:13.261Z,101512.88
2018-07-06T23:27:18.384Z,101487.16
2018-07-06T23:29:24.928Z,101508.98
2018-07-06T23:31:30.095Z,101520.86
2018-07-06T23:33:36.097Z,101517.30
2018-07-06T23:35:41.455Z,101519.91
2018-07-06T23:37:46.506Z,101524.23
2018-07-06T23:39:51.567Z,101527.73
2018-07-06T23:41:56.727Z,101528.26
2018-07-06T23:44:01.760Z,101525.13
2018-07-06T23:46:06.917Z,101500.94
2018-07-06T23:48:11.867Z,101477.85
2018-07-06T23:50:17.240Z,101528.11
2018-07-06T23:52:22.463Z,101519.78
2018-07-06T23:54:27.422Z,101525.31
2018-07-06T23:56:32.386Z,101525.23
2018-07-06T23:58:38.084Z,101527.72
